Time;durP1;ratioP1;P1;durP2;ratioP2;P2;SDS_P1;SDS_P2;PMS_P1;PMS_P2;Temp;Humidity;BMP_temperature;BMP_pressure;BME280_temperature;BME280_humidity;BME280_pressure;Samples;Min_cycle;Max_cycle;Signal;HPM_P1;HPM_P2
2022/05/28 00:01:15;0.00;0.00;0.62;0.00;0.00;0.62;1.37;0.70;;;29.20;26.70;;;;;;2263409;61;20842;-62
2022/05/28 00:04:04;0.00;0.00;0.62;0.00;0.00;0.62;1.67;0.80;;;29.20;26.70;;;;;;2263111;61;20449;-64
2022/05/28 00:06:49;0.00;0.00;0.62;0.00;0.00;0.62;1.30;0.73;;;29.20;26.70;;;;;;2262519;61;20390;-64
2022/05/28 00:09:34;0.00;0.00;0.62;0.00;0.00;0.62;2.20;1.10;;;29.20;26.70;;;;;;2263267;61;20511;-64
2022/05/28 00:12:23;0.00;0.00;0.62;0.00;0.00;0.62;1.30;0.70;;;29.20;26.70;;;;;;2261253;61;20940;-63
2022/05/28 00:15:09;0.00;0.00;0.62;0.00;0.00;0.62;1.47;0.80;;;29.20;26.70;;;;;;2262611;61;20361;-64
2022/05/28 00:17:54;0.00;0.00;0.62;0.00;0.00;0.62;1.43;0.73;;;29.20;26.70;;;;;;2262734;61;20388;-63
2022/05/28 00:20:40;0.00;0.00;0.62;0.00;0.00;0.62;1.87;1.00;;;29.20;26.70;;;;;;2262532;61;20822;-64
2022/05/28 00:23:25;0.00;0.00;0.62;0.00;0.00;0.62;1.47;0.70;;;29.20;26.70;;;;;;2263729;61;21015;-64
2022/05/28 00:26:10;0.00;0.00;0.62;0.00;0.00;0.62;1.30;0.80;;;29.20;26.70;;;;;;2262917;61;20384;-65
2022/05/28 00:28:55;0.00;0.00;0.62;0.00;0.00;0.62;1.60;0.70;;;29.20;26.70;;;;;;2263606;61;20365;-64
2022/05/28 00:31:39;0.00;0.00;0.62;0.00;0.00;0.62;1.93;0.70;;;29.20;26.70;;;;;;2263770;61;20407;-64
2022/05/28 00:34:25;0.00;0.00;0.62;0.00;0.00;0.62;1.30;0.70;;;29.20;26.70;;;;;;2262676;61;20480;-64
2022/05/28 00:37:11;0.00;0.00;0.62;0.00;0.00;0.62;1.60;0.90;;;29.20;26.70;;;;;;2263931;61;20389;-63
2022/05/28 00:39:57;0.00;0.00;0.62;0.00;0.00;0.62;1.60;0.80;;;29.20;26.70;;;;;;2262826;61;20357;-63
2022/05/28 00:42:41;0.00;0.00;0.62;0.00;0.00;0.62;1.60;0.73;;;29.10;26.60;;;;;;2262415;61;20369;-63
2022/05/28 00:45:26;0.00;0.00;0.62;0.00;0.00;0.62;1.50;0.70;;;29.10;26.60;;;;;;2263142;61;20376;-64
2022/05/28 00:48:13;0.00;0.00;0.62;0.00;0.00;0.62;2.17;1.00;;;29.10;26.60;;;;;;2262736;61;20400;-64
2022/05/28 00:51:08;0.00;0.00;0.62;0.00;0.00;0.62;1.40;0.70;;;29.10;26.60;;;;;;2261996;61;20420;-64
2022/05/28 00:53:59;0.00;0.00;0.62;0.00;0.00;0.62;1.97;0.90;;;29.10;26.60;;;;;;2262968;61;20791;-63
2022/05/28 00:56:44;0.00;0.00;0.62;0.00;0.00;0.62;1.40;0.70;;;29.10;26.60;;;;;;2262387;61;20473;-62
2022/05/28 00:59:29;0.00;0.00;0.62;0.00;0.00;0.62;1.50;0.83;;;29.10;26.60;;;;;;2263034;61;20453;-63
2022/05/28 01:02:20;0.00;0.00;0.62;0.00;0.00;0.62;1.57;0.80;;;29.10;26.60;;;;;;2262738;61;20424;-65
2022/05/28 01:05:09;0.00;0.00;0.62;0.00;0.00;0.62;1.60;0.80;;;29.10;26.60;;;;;;2263256;61;20464;-64
2022/05/28 01:08:08;0.00;0.00;0.62;0.00;0.00;0.62;1.73;0.80;;;29.10;26.60;;;;;;2264163;61;20384;-64
2022/05/28 01:11:01;0.00;0.00;0.62;0.00;0.00;0.62;1.37;0.67;;;29.10;26.70;;;;;;2262715;61;20438;-64
2022/05/28 01:13:54;0.00;0.00;0.62;0.00;0.00;0.62;1.90;0.80;;;29.10;26.70;;;;;;2263908;61;20423;-65
2022/05/28 01:16:43;0.00;0.00;0.62;0.00;0.00;0.62;1.57;0.80;;;29.10;26.70;;;;;;2260651;61;20388;-62
2022/05/28 01:19:41;0.00;0.00;0.62;0.00;0.00;0.62;1.67;0.70;;;29.10;26.70;;;;;;2404645;45;20988;-64
2022/05/28 01:22:53;0.00;0.00;0.62;0.00;0.00;0.62;1.20;0.60;;;29.10;26.70;;;;;;2628853;45;20407;-64
2022/05/28 01:25:52;0.00;0.00;0.62;0.00;0.00;0.62;1.63;0.90;;;29.00;26.60;;;;;;2263003;61;20375;-65
2022/05/28 01:28:44;0.00;0.00;0.62;0.00;0.00;0.62;2.30;1.00;;;29.00;26.70;;;;;;2263395;61;20361;-65
2022/05/28 01:31:30;0.00;0.00;0.62;0.00;0.00;0.62;1.77;0.83;;;29.00;26.70;;;;;;2263395;61;20396;-63
2022/05/28 01:34:19;0.00;0.00;0.62;0.00;0.00;0.62;1.50;0.77;;;29.00;26.70;;;;;;2263042;61;20446;-64
2022/05/28 01:37:04;0.00;0.00;0.62;0.00;0.00;0.62;1.50;0.80;;;29.00;26.70;;;;;;2263767;61;20422;-64
2022/05/28 01:39:50;0.00;0.00;0.62;0.00;0.00;0.62;1.40;0.70;;;29.00;26.70;;;;;;2262868;61;20815;-63
2022/05/28 01:42:38;0.00;0.00;0.62;0.00;0.00;0.62;1.10;0.60;;;29.00;26.70;;;;;;2263057;61;20424;-64
2022/05/28 01:45:29;0.00;0.00;0.62;0.00;0.00;0.62;1.60;0.70;;;29.00;26.70;;;;;;2263993;61;20380;-64
2022/05/28 01:48:16;0.00;0.00;0.62;0.00;0.00;0.62;1.40;0.70;;;29.00;26.70;;;;;;2264098;61;20369;-66
2022/05/28 01:51:03;0.00;0.00;0.62;0.00;0.00;0.62;1.20;0.70;;;29.00;26.80;;;;;;2260833;61;20420;-66
2022/05/28 01:54:07;0.00;0.00;0.62;0.00;0.00;0.62;1.40;0.70;;;29.00;26.80;;;;;;2263225;61;20905;-67
2022/05/28 01:56:54;0.00;0.00;0.62;0.00;0.00;0.62;1.40;0.73;;;29.00;26.80;;;;;;2262821;61;20766;-64
2022/05/28 01:59:40;0.00;0.00;0.62;0.00;0.00;0.62;1.50;0.80;;;29.00;26.80;;;;;;2263685;61;20427;-65
2022/05/28 02:02:25;0.00;0.00;0.62;0.00;0.00;0.62;2.13;1.00;;;29.00;26.60;;;;;;2263347;61;20624;-66
2022/05/28 02:05:10;0.00;0.00;0.62;0.00;0.00;0.62;2.37;1.13;;;29.00;25.90;;;;;;2267067;61;20488;-67
2022/05/28 02:07:57;0.00;0.00;0.62;0.00;0.00;0.62;3.20;1.23;;;28.90;24.90;;;;;;2269303;61;20407;-63
2022/05/28 02:15:24;0.00;0.00;0.62;0.00;0.00;0.62;2.80;1.20;;;28.60;23.70;;;;;;2262073;61;20359;-67
2022/05/28 02:18:23;0.00;0.00;0.62;0.00;0.00;0.62;2.47;1.00;;;28.40;23.10;;;;;;2266085;61;20369;-63
2022/05/28 02:21:15;0.00;0.00;0.62;0.00;0.00;0.62;3.90;1.10;;;28.20;22.90;;;;;;2264883;61;20369;-65
2022/05/28 02:24:08;0.00;0.00;0.62;0.00;0.00;0.62;2.53;1.40;;;28.00;22.70;;;;;;2263789;61;20361;-66
2022/05/28 02:26:59;0.00;0.00;0.62;0.00;0.00;0.62;1.97;1.03;;;27.80;22.60;;;;;;2262931;61;20475;-66
2022/05/28 02:29:44;0.00;0.00;0.62;0.00;0.00;0.62;3.90;1.30;;;27.60;22.70;;;;;;2263218;61;20373;-67
2022/05/28 02:32:29;0.00;0.00;0.62;0.00;0.00;0.62;2.63;1.20;;;27.30;22.80;;;;;;2261913;61;20388;-66
2022/05/28 02:35:15;0.00;0.00;0.62;0.00;0.00;0.62;4.37;1.80;;;27.20;22.90;;;;;;2266888;61;20369;-67
2022/05/28 02:38:00;0.00;0.00;0.62;0.00;0.00;0.62;2.70;1.20;;;26.90;23.30;;;;;;2265449;61;20381;-63
2022/05/28 02:40:45;0.00;0.00;0.62;0.00;0.00;0.62;4.20;1.40;;;26.80;23.20;;;;;;2262624;61;20449;-68
2022/05/28 02:43:31;0.00;0.00;0.62;0.00;0.00;0.62;3.87;1.90;;;26.60;23.10;;;;;;2264349;61;20840;-65
2022/05/28 02:46:16;0.00;0.00;0.62;0.00;0.00;0.62;4.63;1.20;;;26.40;23.20;;;;;;2263405;61;20381;-67
2022/05/28 02:49:02;0.00;0.00;0.62;0.00;0.00;0.62;4.73;1.47;;;26.30;23.40;;;;;;2269340;61;20353;-64
2022/05/28 02:52:16;0.00;0.00;0.62;0.00;0.00;0.62;3.30;1.33;;;26.10;24.10;;;;;;2271970;61;20392;-63
2022/05/28 02:56:06;0.00;0.00;0.62;0.00;0.00;0.62;5.50;1.50;;;25.90;23.80;;;;;;2261304;61;20360;-61
2022/05/28 02:58:52;0.00;0.00;0.62;0.00;0.00;0.62;4.73;1.70;;;25.70;23.90;;;;;;2271065;61;20810;-64
2022/05/28 03:01:36;0.00;0.00;0.62;0.00;0.00;0.62;2.47;1.27;;;25.60;23.90;;;;;;2268439;61;20360;-67
2022/05/28 03:04:21;0.00;0.00;0.62;0.00;0.00;0.62;3.40;1.50;;;25.50;24.00;;;;;;2269466;61;20355;-66
2022/05/28 03:07:07;0.00;0.00;0.62;0.00;0.00;0.62;4.90;1.50;;;25.40;24.00;;;;;;2272522;61;20403;-67
2022/05/28 03:09:52;0.00;0.00;0.62;0.00;0.00;0.62;3.37;1.60;;;25.30;24.10;;;;;;2271741;61;20392;-67
2022/05/28 03:12:36;0.00;0.00;0.62;0.00;0.00;0.62;2.73;1.20;;;25.20;24.10;;;;;;2269197;61;20358;-67
2022/05/28 03:15:21;0.00;0.00;0.62;0.00;0.00;0.62;6.83;1.70;;;25.10;24.20;;;;;;2270252;61;20363;-65
2022/05/28 03:18:06;0.00;0.00;0.62;0.00;0.00;0.62;5.93;1.40;;;25.00;24.30;;;;;;2272979;61;20344;-66
2022/05/28 03:20:51;0.00;0.00;0.62;0.00;0.00;0.62;3.13;1.63;;;25.00;24.30;;;;;;2270506;61;20356;-66
2022/05/28 03:23:37;0.00;0.00;0.62;0.00;0.00;0.62;5.40;1.77;;;24.90;24.30;;;;;;2270009;61;20387;-63
2022/05/28 03:26:25;0.00;0.00;0.62;0.00;0.00;0.62;5.90;1.40;;;24.70;24.20;;;;;;2269615;61;20396;-66
2022/05/28 03:29:10;0.00;0.00;0.62;0.00;0.00;0.62;2.70;1.40;;;24.70;24.40;;;;;;2267819;61;20395;-65
2022/05/28 03:31:54;0.00;0.00;0.62;0.00;0.00;0.62;4.83;1.23;;;24.50;24.30;;;;;;2268369;61;20387;-65
2022/05/28 03:34:39;0.00;0.00;0.62;0.00;0.00;0.62;4.83;1.63;;;24.40;24.40;;;;;;2269416;61;20472;-67
2022/05/28 03:37:24;0.00;0.00;0.62;0.00;0.00;0.62;4.30;1.53;;;24.30;24.50;;;;;;2268232;61;20402;-66
2022/05/28 03:40:11;0.00;0.00;0.62;0.00;0.00;0.62;3.70;1.83;;;24.20;24.60;;;;;;2270541;61;20432;-66
2022/05/28 03:42:56;0.00;0.00;0.62;0.00;0.00;0.62;3.60;1.53;;;24.10;24.60;;;;;;2269990;61;20372;-66
2022/05/28 03:45:41;0.00;0.00;0.62;0.00;0.00;0.62;2.83;1.50;;;24.00;24.60;;;;;;2269213;61;20359;-66
2022/05/28 03:48:26;0.00;0.00;0.62;0.00;0.00;0.62;3.93;1.60;;;23.90;24.70;;;;;;2270491;61;20356;-66
2022/05/28 03:51:12;0.00;0.00;0.62;0.00;0.00;0.62;4.20;2.10;;;23.90;24.80;;;;;;2263654;61;20932;-65
2022/05/28 03:53:57;0.00;0.00;0.62;0.00;0.00;0.62;6.27;1.77;;;23.80;24.80;;;;;;2261542;61;20378;-66
2022/05/28 03:56:44;0.00;0.00;0.62;0.00;0.00;0.62;3.83;1.50;;;23.70;24.80;;;;;;2265802;61;20983;-66
2022/05/28 03:59:29;0.00;0.00;0.62;0.00;0.00;0.62;5.93;1.80;;;23.60;24.90;;;;;;2265341;61;20360;-64
2022/05/28 04:02:14;0.00;0.00;0.62;0.00;0.00;0.62;3.73;1.30;;;23.50;25.00;;;;;;2266480;61;20403;-66
2022/05/28 04:04:59;0.00;0.00;0.62;0.00;0.00;0.62;4.90;2.10;;;23.40;25.00;;;;;;2262580;61;20388;-66
2022/05/28 04:07:43;0.00;0.00;0.62;0.00;0.00;0.62;4.83;1.60;;;23.40;25.10;;;;;;2264337;61;20415;-67
2022/05/28 04:10:28;0.00;0.00;0.62;0.00;0.00;0.62;3.00;1.60;;;23.30;25.20;;;;;;2263718;61;20473;-66
2022/05/28 04:13:14;0.00;0.00;0.62;0.00;0.00;0.62;4.20;1.70;;;23.20;25.30;;;;;;2265002;61;20364;-68
2022/05/28 04:15:58;0.00;0.00;0.62;0.00;0.00;0.62;4.33;1.80;;;23.10;25.40;;;;;;2264155;61;20384;-66
2022/05/28 04:18:43;0.00;0.00;0.62;0.00;0.00;0.62;4.90;1.80;;;23.00;25.40;;;;;;2264436;61;20367;-66
2022/05/28 04:21:27;0.00;0.00;0.62;0.00;0.00;0.62;3.60;1.23;;;23.00;25.50;;;;;;2264731;61;20410;-67
2022/05/28 04:24:12;0.00;0.00;0.62;0.00;0.00;0.62;5.40;2.20;;;22.90;25.60;;;;;;2263838;61;20442;-66
2022/05/28 04:26:57;0.00;0.00;0.62;0.00;0.00;0.62;5.40;2.20;;;22.80;25.60;;;;;;2265057;61;20379;-67
2022/05/28 04:29:43;0.00;0.00;0.62;0.00;0.00;0.62;4.70;1.83;;;22.70;25.70;;;;;;2264419;61;20383;-68
2022/05/28 04:32:27;0.00;0.00;0.62;0.00;0.00;0.62;4.43;1.50;;;22.60;25.70;;;;;;2264025;61;20398;-66
2022/05/28 04:35:12;0.00;0.00;0.62;0.00;0.00;0.62;5.07;1.90;;;22.50;25.70;;;;;;2265055;61;20360;-66
2022/05/28 04:37:57;0.00;0.00;0.62;0.00;0.00;0.62;4.80;1.60;;;22.50;25.80;;;;;;2264014;61;20387;-67
2022/05/28 04:40:41;0.00;0.00;0.62;0.00;0.00;0.62;7.83;1.40;;;22.40;25.90;;;;;;2265922;61;20360;-65
2022/05/28 04:43:26;0.00;0.00;0.62;0.00;0.00;0.62;5.07;1.80;;;22.30;26.00;;;;;;2269564;61;20359;-65
2022/05/28 04:46:12;0.00;0.00;0.62;0.00;0.00;0.62;5.30;1.70;;;22.30;26.00;;;;;;2269436;61;20909;-67
2022/05/28 04:48:58;0.00;0.00;0.62;0.00;0.00;0.62;3.50;1.60;;;22.20;26.00;;;;;;2269964;61;20368;-67
2022/05/28 04:51:42;0.00;0.00;0.62;0.00;0.00;0.62;4.60;1.30;;;22.20;26.00;;;;;;2265743;61;20904;-66
2022/05/28 04:54:27;0.00;0.00;0.62;0.00;0.00;0.62;6.63;1.60;;;22.20;26.00;;;;;;2266189;61;20356;-66
2022/05/28 04:57:12;0.00;0.00;0.62;0.00;0.00;0.62;6.37;1.60;;;22.20;26.00;;;;;;2266509;61;20390;-66
2022/05/28 04:59:56;0.00;0.00;0.62;0.00;0.00;0.62;6.40;1.90;;;22.20;26.00;;;;;;2263866;61;20440;-65
2022/05/28 05:02:42;0.00;0.00;0.62;0.00;0.00;0.62;6.33;1.60;;;22.20;26.00;;;;;;2263786;61;20406;-65
2022/05/28 05:05:27;0.00;0.00;0.62;0.00;0.00;0.62;5.40;1.30;;;22.10;26.00;;;;;;2264071;61;20372;-65
2022/05/28 05:08:12;0.00;0.00;0.62;0.00;0.00;0.62;6.23;2.13;;;22.10;26.00;;;;;;2263488;61;20380;-66
2022/05/28 05:10:57;0.00;0.00;0.62;0.00;0.00;0.62;5.67;1.50;;;22.10;26.10;;;;;;2263580;61;20530;-65
2022/05/28 05:13:42;0.00;0.00;0.62;0.00;0.00;0.62;4.10;1.27;;;22.00;26.10;;;;;;2263826;61;20814;-66
2022/05/28 05:16:27;0.00;0.00;0.62;0.00;0.00;0.62;5.70;1.47;;;22.00;26.20;;;;;;2263886;61;20437;-66
2022/05/28 05:19:12;0.00;0.00;0.62;0.00;0.00;0.62;6.67;1.80;;;22.00;26.20;;;;;;2264117;61;20418;-65
2022/05/28 05:21:57;0.00;0.00;0.62;0.00;0.00;0.62;5.30;1.87;;;21.90;26.20;;;;;;2263519;61;20352;-65
2022/05/28 05:24:42;0.00;0.00;0.62;0.00;0.00;0.62;4.07;1.90;;;21.80;26.30;;;;;;2263675;61;20427;-67
2022/05/28 05:27:26;0.00;0.00;0.62;0.00;0.00;0.62;4.40;1.70;;;21.80;26.30;;;;;;2260929;61;20784;-66
2022/05/28 05:30:13;0.00;0.00;0.62;0.00;0.00;0.62;2.93;1.23;;;21.80;26.40;;;;;;2263563;61;20388;-66
2022/05/28 05:32:57;0.00;0.00;0.62;0.00;0.00;0.62;3.17;1.60;;;21.80;26.40;;;;;;2260583;61;20371;-65
2022/05/28 05:35:43;0.00;0.00;0.62;0.00;0.00;0.62;6.03;1.77;;;21.80;26.30;;;;;;2264047;61;20403;-64
2022/05/28 05:38:28;0.00;0.00;0.62;0.00;0.00;0.62;3.43;1.27;;;21.80;26.40;;;;;;2263568;61;20784;-64
2022/05/28 05:41:12;0.00;0.00;0.62;0.00;0.00;0.62;2.93;1.20;;;21.70;26.40;;;;;;2264343;61;20352;-66
2022/05/28 05:43:57;0.00;0.00;0.62;0.00;0.00;0.62;3.50;1.63;;;21.70;26.40;;;;;;2264495;61;20349;-66
2022/05/28 05:46:43;0.00;0.00;0.62;0.00;0.00;0.62;4.27;1.20;;;21.70;26.40;;;;;;2264237;61;20379;-65
2022/05/28 05:49:28;0.00;0.00;0.62;0.00;0.00;0.62;5.00;1.67;;;21.70;26.40;;;;;;2264806;61;20379;-65
2022/05/28 05:52:14;0.00;0.00;0.62;0.00;0.00;0.62;3.00;1.40;;;21.70;26.40;;;;;;2260670;61;20526;-65
2022/05/28 05:54:59;0.00;0.00;0.62;0.00;0.00;0.62;2.47;1.50;;;21.60;26.40;;;;;;2264459;61;20368;-66
2022/05/28 05:57:44;0.00;0.00;0.62;0.00;0.00;0.62;3.80;2.00;;;21.60;26.40;;;;;;2264953;61;20437;-66
2022/05/28 06:00:28;0.00;0.00;0.62;0.00;0.00;0.62;4.63;1.77;;;21.60;26.50;;;;;;2263184;61;20360;-65
2022/05/28 06:03:17;0.00;0.00;0.62;0.00;0.00;0.62;2.57;1.10;;;21.60;26.50;;;;;;2265066;61;20455;-66
2022/05/28 06:06:05;0.00;0.00;0.62;0.00;0.00;0.62;3.30;1.60;;;21.60;26.60;;;;;;2261286;61;20376;-65
2022/05/28 06:08:51;0.00;0.00;0.62;0.00;0.00;0.62;5.20;1.70;;;21.50;26.50;;;;;;2263151;61;20364;-66
2022/05/28 06:11:36;0.00;0.00;0.62;0.00;0.00;0.62;3.13;1.50;;;21.60;26.50;;;;;;2264862;61;20396;-66
2022/05/28 06:14:20;0.00;0.00;0.62;0.00;0.00;0.62;4.40;1.87;;;21.60;26.50;;;;;;2261433;61;20452;-66
2022/05/28 06:17:05;0.00;0.00;0.62;0.00;0.00;0.62;4.10;1.90;;;21.50;26.40;;;;;;2264417;61;20800;-66
2022/05/28 06:19:49;0.00;0.00;0.62;0.00;0.00;0.62;3.90;1.80;;;21.50;26.40;;;;;;2265412;61;20360;-70
2022/05/28 06:22:34;0.00;0.00;0.62;0.00;0.00;0.62;11.43;2.20;;;21.50;26.40;;;;;;2263912;61;20418;-67
2022/05/28 06:25:21;0.00;0.00;0.62;0.00;0.00;0.62;3.27;1.50;;;21.50;26.40;;;;;;2264856;61;20368;-69
2022/05/28 06:28:06;0.00;0.00;0.62;0.00;0.00;0.62;3.17;1.50;;;21.50;26.40;;;;;;2261468;61;20364;-66
2022/05/28 06:30:51;0.00;0.00;0.62;0.00;0.00;0.62;5.47;2.13;;;21.40;26.40;;;;;;2260645;61;20442;-68
2022/05/28 06:33:37;0.00;0.00;0.62;0.00;0.00;0.62;5.57;1.50;;;21.40;26.40;;;;;;2265367;61;21090;-69
2022/05/28 06:36:21;0.00;0.00;0.62;0.00;0.00;0.62;4.20;1.90;;;21.40;26.40;;;;;;2261219;61;20384;-65
2022/05/28 06:39:06;0.00;0.00;0.62;0.00;0.00;0.62;6.60;2.30;;;21.40;26.50;;;;;;2264773;61;20493;-65
2022/05/28 06:41:53;0.00;0.00;0.62;0.00;0.00;0.62;4.70;1.47;;;21.30;26.50;;;;;;2264630;61;20399;-66
2022/05/28 06:44:39;0.00;0.00;0.62;0.00;0.00;0.62;4.93;2.17;;;21.30;26.70;;;;;;2260457;61;20922;-65
2022/05/28 06:47:23;0.00;0.00;0.62;0.00;0.00;0.62;5.53;1.97;;;21.30;26.80;;;;;;2258566;61;20383;-66
2022/05/28 06:53:13;0.00;0.00;0.62;0.00;0.00;0.62;6.40;2.20;;;21.20;27.00;;;;;;2264177;61;20908;-65
2022/05/28 06:55:58;0.00;0.00;0.62;0.00;0.00;0.62;3.73;2.00;;;21.20;27.20;;;;;;2264408;61;20388;-66
2022/05/28 06:58:44;0.00;0.00;0.62;0.00;0.00;0.62;2.60;1.67;;;21.20;27.40;;;;;;2263371;61;20410;-66
2022/05/28 07:01:29;0.00;0.00;0.62;0.00;0.00;0.62;4.93;1.87;;;21.10;27.40;;;;;;2263459;61;20364;-66
2022/05/28 07:04:14;0.00;0.00;0.62;0.00;0.00;0.62;3.50;2.00;;;21.20;27.40;;;;;;2262128;61;20360;-63
2022/05/28 07:06:59;0.00;0.00;0.62;0.00;0.00;0.62;3.77;1.90;;;21.20;27.40;;;;;;2264566;61;20376;-60
2022/05/28 07:09:43;0.00;0.00;0.62;0.00;0.00;0.62;4.73;2.27;;;21.20;27.40;;;;;;2264680;61;20368;-59
2022/05/28 07:12:27;0.00;0.00;0.62;0.00;0.00;0.62;6.47;1.70;;;21.20;27.50;;;;;;2264073;61;20360;-59
2022/05/28 07:15:14;0.00;0.00;0.62;0.00;0.00;0.62;4.87;1.83;;;21.20;27.40;;;;;;2265056;61;20781;-58
2022/05/28 07:17:58;0.00;0.00;0.62;0.00;0.00;0.62;3.87;1.50;;;21.20;27.40;;;;;;2264499;61;20503;-63
2022/05/28 07:20:44;0.00;0.00;0.62;0.00;0.00;0.62;5.07;2.00;;;21.20;27.40;;;;;;2263453;61;20364;-65
2022/05/28 07:23:30;0.00;0.00;0.62;0.00;0.00;0.62;3.70;1.50;;;21.30;27.50;;;;;;2264190;61;20726;-63
2022/05/28 07:26:17;0.00;0.00;0.62;0.00;0.00;0.62;4.20;1.87;;;21.30;27.50;;;;;;2264498;61;20423;-64
2022/05/28 07:29:03;0.00;0.00;0.62;0.00;0.00;0.62;3.80;1.60;;;21.30;27.50;;;;;;2263903;61;20471;-62
2022/05/28 07:31:49;0.00;0.00;0.62;0.00;0.00;0.62;4.70;2.00;;;21.40;27.60;;;;;;2264458;61;20387;-63
2022/05/28 07:34:34;0.00;0.00;0.62;0.00;0.00;0.62;3.50;1.63;;;21.40;27.60;;;;;;2263828;61;20437;-63
2022/05/28 07:37:18;0.00;0.00;0.62;0.00;0.00;0.62;5.40;2.00;;;21.40;27.60;;;;;;2264270;61;20983;-64
2022/05/28 07:40:04;0.00;0.00;0.62;0.00;0.00;0.62;3.17;1.40;;;21.40;27.60;;;;;;2265095;61;20904;-60
2022/05/28 07:42:49;0.00;0.00;0.62;0.00;0.00;0.62;2.07;1.20;;;21.50;27.70;;;;;;2264431;61;20391;-62
2022/05/28 07:45:37;0.00;0.00;0.62;0.00;0.00;0.62;3.27;1.43;;;21.50;27.70;;;;;;2264599;61;20430;-63
2022/05/28 07:48:24;0.00;0.00;0.62;0.00;0.00;0.62;4.50;1.30;;;21.50;27.70;;;;;;2264600;61;20521;-66
2022/05/28 07:51:10;0.00;0.00;0.62;0.00;0.00;0.62;2.40;1.47;;;21.60;27.70;;;;;;2265229;61;20395;-63
2022/05/28 07:53:57;0.00;0.00;0.62;0.00;0.00;0.62;3.20;1.50;;;21.70;27.80;;;;;;2259160;61;20367;-62
2022/05/28 07:56:44;0.00;0.00;0.62;0.00;0.00;0.62;5.30;1.60;;;21.70;27.80;;;;;;2264555;61;20387;-57
2022/05/28 07:59:29;0.00;0.00;0.62;0.00;0.00;0.62;3.30;1.80;;;21.80;27.90;;;;;;2265170;61;20406;-62
2022/05/28 08:02:14;0.00;0.00;0.62;0.00;0.00;0.62;2.90;1.30;;;21.80;27.90;;;;;;2265282;61;20364;-60
2022/05/28 08:05:00;0.00;0.00;0.62;0.00;0.00;0.62;3.20;1.73;;;21.90;27.90;;;;;;2265276;61;20368;-59
2022/05/28 08:07:46;0.00;0.00;0.62;0.00;0.00;0.62;2.13;1.40;;;22.00;27.90;;;;;;2265717;61;20438;-61
2022/05/28 08:10:31;0.00;0.00;0.62;0.00;0.00;0.62;3.53;1.60;;;22.00;27.90;;;;;;2263138;61;20931;-63
2022/05/28 08:13:20;0.00;0.00;0.62;0.00;0.00;0.62;2.27;1.53;;;22.10;27.80;;;;;;2262187;61;20490;-62
2022/05/28 08:16:05;0.00;0.00;0.62;0.00;0.00;0.62;2.43;1.33;;;22.10;27.80;;;;;;2264429;61;20384;-60
2022/05/28 08:18:50;0.00;0.00;0.62;0.00;0.00;0.62;2.30;1.27;;;22.20;27.80;;;;;;2265323;61;20441;-63
2022/05/28 08:24:39;0.00;0.00;0.62;0.00;0.00;0.62;2.27;1.67;;;22.30;27.80;;;;;;2265163;61;20363;-66
2022/05/28 08:27:25;0.00;0.00;0.62;0.00;0.00;0.62;1.90;1.10;;;22.40;27.70;;;;;;2258106;61;20438;-66
2022/05/28 08:30:11;0.00;0.00;0.62;0.00;0.00;0.62;2.20;1.33;;;22.40;27.80;;;;;;2265199;61;20449;-65
2022/05/28 08:32:55;0.00;0.00;0.62;0.00;0.00;0.62;2.60;1.30;;;22.40;27.70;;;;;;2265425;61;20456;-64
2022/05/28 08:35:42;0.00;0.00;0.62;0.00;0.00;0.62;4.03;1.27;;;22.50;27.70;;;;;;2261541;61;20402;-64
2022/05/28 08:38:29;0.00;0.00;0.62;0.00;0.00;0.62;3.10;1.33;;;22.60;27.80;;;;;;2265765;61;20367;-65
2022/05/28 08:41:17;0.00;0.00;0.62;0.00;0.00;0.62;2.50;1.30;;;22.70;27.90;;;;;;2264099;61;20360;-65
2022/05/28 08:44:15;0.00;0.00;0.62;0.00;0.00;0.62;2.60;1.13;;;22.70;27.80;;;;;;2260812;61;20787;-66
2022/05/28 08:47:13;0.00;0.00;0.62;0.00;0.00;0.62;2.37;1.20;;;22.80;27.90;;;;;;2265649;61;20916;-64
2022/05/28 08:49:58;0.00;0.00;0.62;0.00;0.00;0.62;1.80;1.00;;;22.80;27.80;;;;;;2263279;61;20908;-62
2022/05/28 08:52:48;0.00;0.00;0.62;0.00;0.00;0.62;2.20;1.37;;;22.90;27.90;;;;;;2264691;61;20835;-65
2022/05/28 08:55:50;0.00;0.00;0.62;0.00;0.00;0.62;2.67;1.30;;;23.00;27.90;;;;;;2264543;61;20375;-64
2022/05/28 08:58:37;0.00;0.00;0.62;0.00;0.00;0.62;3.40;1.60;;;23.00;27.90;;;;;;2260250;61;20430;-64
2022/05/28 09:01:23;0.00;0.00;0.62;0.00;0.00;0.62;2.33;1.20;;;23.10;27.90;;;;;;2261249;61;20806;-65
2022/05/28 09:04:14;0.00;0.00;0.62;0.00;0.00;0.62;3.30;1.30;;;23.10;27.90;;;;;;2261277;61;20364;-64
2022/05/28 09:07:05;0.00;0.00;0.62;0.00;0.00;0.62;2.60;1.90;;;23.20;27.90;;;;;;2256665;61;20420;-63
2022/05/28 09:09:54;0.00;0.00;0.62;0.00;0.00;0.62;2.53;1.70;;;23.30;27.90;;;;;;2261147;61;20513;-65
2022/05/28 09:12:46;0.00;0.00;0.62;0.00;0.00;0.62;3.00;1.77;;;23.30;27.90;;;;;;2258764;61;20401;-64
2022/05/28 09:15:35;0.00;0.00;0.62;0.00;0.00;0.62;2.40;1.47;;;23.30;27.90;;;;;;2261850;61;20492;-61
2022/05/28 09:18:20;0.00;0.00;0.62;0.00;0.00;0.62;5.33;1.90;;;23.40;27.90;;;;;;2258490;61;20369;-61
2022/05/28 09:21:07;0.00;0.00;0.62;0.00;0.00;0.62;2.30;1.50;;;23.40;27.90;;;;;;2260194;61;20496;-64
2022/05/28 09:23:58;0.00;0.00;0.62;0.00;0.00;0.62;2.47;1.40;;;23.50;28.00;;;;;;2263286;61;20357;-64
2022/05/28 09:26:57;0.00;0.00;0.62;0.00;0.00;0.62;2.33;1.40;;;23.50;27.90;;;;;;2256979;61;20845;-63
2022/05/28 09:30:07;0.00;0.00;0.62;0.00;0.00;0.62;2.43;1.40;;;23.60;27.90;;;;;;2261223;61;20392;-63
2022/05/28 09:33:28;0.00;0.00;0.62;0.00;0.00;0.62;2.60;1.33;;;23.60;27.90;;;;;;2258014;61;20368;-65
2022/05/28 09:36:22;0.00;0.00;0.62;0.00;0.00;0.62;2.83;1.27;;;23.70;27.90;;;;;;2261325;61;20380;-66
2022/05/28 09:39:29;0.00;0.00;0.62;0.00;0.00;0.62;2.57;1.43;;;23.70;27.90;;;;;;2261411;61;20379;-60
2022/05/28 09:42:29;0.00;0.00;0.62;0.00;0.00;0.62;2.00;1.27;;;23.80;27.90;;;;;;2258018;61;20427;-65
2022/05/28 09:45:27;0.00;0.00;0.62;0.00;0.00;0.62;1.70;1.30;;;23.80;27.80;;;;;;2259024;61;20462;-64
2022/05/28 09:48:22;0.00;0.00;0.62;0.00;0.00;0.62;2.40;1.70;;;23.90;27.90;;;;;;2260424;61;20445;-66
2022/05/28 09:51:24;0.00;0.00;0.62;0.00;0.00;0.62;2.47;1.30;;;24.00;27.90;;;;;;2261116;61;20482;-63
2022/05/28 09:54:18;0.00;0.00;0.62;0.00;0.00;0.62;3.30;1.60;;;24.00;27.90;;;;;;2260553;61;20410;-65
2022/05/28 09:57:10;0.00;0.00;0.62;0.00;0.00;0.62;2.80;1.80;;;24.10;27.90;;;;;;2260607;61;20400;-63
2022/05/28 10:00:03;0.00;0.00;0.62;0.00;0.00;0.62;2.63;1.60;;;24.10;27.90;;;;;;2261629;61;20410;-65
2022/05/28 10:05:59;0.00;0.00;0.62;0.00;0.00;0.62;2.67;1.70;;;24.20;27.80;;;;;;2264946;61;20411;-65
2022/05/28 10:08:46;0.00;0.00;0.62;0.00;0.00;0.62;2.80;1.60;;;24.30;27.80;;;;;;2260263;61;20375;-64
2022/05/28 10:11:33;0.00;0.00;0.62;0.00;0.00;0.62;3.63;1.80;;;24.30;27.80;;;;;;2265274;61;20538;-66
2022/05/28 10:14:20;0.00;0.00;0.62;0.00;0.00;0.62;2.03;1.33;;;24.30;27.80;;;;;;2262195;61;20368;-63
2022/05/28 10:17:06;0.00;0.00;0.62;0.00;0.00;0.62;2.40;1.70;;;24.40;27.80;;;;;;2262065;61;20396;-65
2022/05/28 10:20:02;0.00;0.00;0.62;0.00;0.00;0.62;3.53;2.00;;;24.40;27.80;;;;;;2261063;61;20356;-63
2022/05/28 10:22:51;0.00;0.00;0.62;0.00;0.00;0.62;2.97;1.43;;;24.40;27.70;;;;;;2265491;61;20371;-66
2022/05/28 10:25:46;0.00;0.00;0.62;0.00;0.00;0.62;3.97;1.63;;;24.50;27.80;;;;;;2258556;61;20411;-64
2022/05/28 10:28:42;0.00;0.00;0.62;0.00;0.00;0.62;2.80;1.60;;;24.50;27.80;;;;;;2264874;61;20422;-62
2022/05/28 10:31:31;0.00;0.00;0.62;0.00;0.00;0.62;3.30;1.87;;;24.60;28.40;;;;;;2261419;61;20470;-64
2022/05/28 10:34:31;0.00;0.00;0.62;0.00;0.00;0.62;3.17;2.10;;;24.60;27.80;;;;;;2264988;61;20375;-66
2022/05/28 10:37:19;0.00;0.00;0.62;0.00;0.00;0.62;2.33;1.50;;;24.60;27.80;;;;;;2264669;61;20388;-62
2022/05/28 10:40:12;0.00;0.00;0.62;0.00;0.00;0.62;3.00;1.83;;;24.70;27.80;;;;;;2261336;61;20433;-63
2022/05/28 10:43:02;0.00;0.00;0.62;0.00;0.00;0.62;4.07;2.13;;;24.70;27.80;;;;;;2264608;61;20364;-64
2022/05/28 10:45:52;0.00;0.00;0.62;0.00;0.00;0.62;2.07;1.53;;;24.70;27.80;;;;;;2261497;61;20468;-62
2022/05/28 10:48:57;0.00;0.00;0.62;0.00;0.00;0.62;3.10;1.80;;;24.80;27.80;;;;;;2264264;61;20363;-64
2022/05/28 10:51:56;0.00;0.00;0.62;0.00;0.00;0.62;4.80;1.77;;;24.80;27.80;;;;;;2264480;61;20391;-63
2022/05/28 10:54:54;0.00;0.00;0.62;0.00;0.00;0.62;2.77;1.90;;;24.80;27.70;;;;;;2264440;61;20364;-65
2022/05/28 10:58:04;0.00;0.00;0.62;0.00;0.00;0.62;3.47;2.30;;;24.90;27.70;;;;;;2260929;61;20910;-65
2022/05/28 11:00:59;0.00;0.00;0.62;0.00;0.00;0.62;4.20;2.23;;;25.00;27.70;;;;;;2264758;61;20887;-65
2022/05/28 11:04:24;0.00;0.00;0.62;0.00;0.00;0.62;3.10;2.00;;;25.00;27.70;;;;;;2264240;61;20356;-64
2022/05/28 11:07:34;0.00;0.00;0.62;0.00;0.00;0.62;2.47;1.80;;;25.00;27.70;;;;;;2264257;61;20410;-66
2022/05/28 11:10:34;0.00;0.00;0.62;0.00;0.00;0.62;2.80;1.80;;;25.00;27.60;;;;;;2260015;61;20985;-65
2022/05/28 11:13:46;0.00;0.00;0.62;0.00;0.00;0.62;1.83;1.30;;;25.00;27.60;;;;;;2263608;61;20426;-61
2022/05/28 11:16:52;0.00;0.00;0.62;0.00;0.00;0.62;2.67;1.70;;;25.10;27.70;;;;;;2264288;61;20438;-64
2022/05/28 11:20:07;0.00;0.00;0.62;0.00;0.00;0.62;2.40;1.50;;;25.10;27.70;;;;;;2263996;61;20372;-62